Nouasseur, Morocco
Current Conditions -  °F | °C
As of 2:00 AM on Saturday 25 Oct 2014 (Local Time) from GMMN Reporting Station
Scattered Clouds Scattered Clouds  
Wind Chill: 59°   Ceiling: Unl
Heat Index: 59°   Visibility: 6mi
Dew Point: 57°   Wind: 7mph
Humidity: 94%   Direction: 180°S
Pressure: 30"   Gusts: NA
Location:  33.37°N, 7.58°W
Report Text: GMMN 250100Z 18006KT 9000 SCT010 15/14 Q1016 BECMG 3000 BRBKN006
Loading
Personal Weather Stations






























Interactive Weather Map New forecast layout! Learn more

10-Day Weather Forecast

Advertisements
Track Severe Weather on mobile